createdAt,value
2023-03-02T00:00:04.497Z,808.19
2023-03-02T00:01:04.490Z,808.20
2023-03-02T00:02:04.496Z,808.22
2023-03-02T00:03:04.628Z,808.19
2023-03-02T00:04:04.625Z,808.22
2023-03-02T00:05:04.500Z,808.24
2023-03-02T00:06:04.507Z,808.29
2023-03-02T00:07:04.511Z,808.27
2023-03-02T00:08:04.521Z,808.19
2023-03-02T00:09:04.520Z,808.21
2023-03-02T00:10:04.522Z,808.26
2023-03-02T00:11:04.541Z,808.28
2023-03-02T00:12:04.533Z,808.30
2023-03-02T00:13:04.543Z,808.24
2023-03-02T00:14:04.545Z,808.22
2023-03-02T00:15:04.553Z,808.25
2023-03-02T00:16:04.615Z,808.23
2023-03-02T00:17:04.563Z,808.24
2023-03-02T00:18:04.562Z,808.26
2023-03-02T00:19:04.569Z,808.27
2023-03-02T00:20:04.578Z,808.31
2023-03-02T00:21:04.580Z,808.25
2023-03-02T00:22:04.586Z,808.23
2023-03-02T00:23:04.592Z,808.24
2023-03-02T00:24:04.612Z,808.27
2023-03-02T00:25:04.604Z,808.26
2023-03-02T00:26:04.606Z,808.29
2023-03-02T00:27:04.612Z,808.24
2023-03-02T00:28:04.630Z,808.23
2023-03-02T00:29:04.625Z,808.21
2023-03-02T00:30:04.621Z,808.16
2023-03-02T00:31:04.704Z,808.17
2023-03-02T00:32:04.693Z,808.21
2023-03-02T00:33:04.644Z,808.23
2023-03-02T00:34:04.647Z,808.20
2023-03-02T00:35:04.721Z,808.18
2023-03-02T00:36:04.677Z,808.24
2023-03-02T00:37:04.656Z,808.19
2023-03-02T00:38:04.665Z,808.23
2023-03-02T00:39:04.700Z,808.20
2023-03-02T00:40:04.668Z,808.22
2023-03-02T00:41:04.676Z,808.23
2023-03-02T00:42:04.690Z,808.18
2023-03-02T00:43:04.688Z,808.22
2023-03-02T00:44:04.689Z,808.20
2023-03-02T00:45:04.737Z,808.20
2023-03-02T00:46:04.702Z,808.19
2023-03-02T00:47:04.794Z,808.21
2023-03-02T00:48:04.727Z,808.18
2023-03-02T00:49:04.715Z,808.20
2023-03-02T00:50:04.721Z,808.18
2023-03-02T00:51:04.729Z,808.17
2023-03-02T00:52:04.731Z,808.18
2023-03-02T00:53:04.740Z,808.23
2023-03-02T00:54:04.736Z,808.25
2023-03-02T00:55:04.746Z,808.22
2023-03-02T00:56:04.769Z,808.19
2023-03-02T00:57:04.756Z,808.18
2023-03-02T00:58:04.766Z,808.17
2023-03-02T00:59:04.762Z,808.15
2023-03-02T01:00:04.776Z,808.14
2023-03-02T01:01:04.773Z,808.10
2023-03-02T01:02:04.850Z,808.08
2023-03-02T01:03:04.837Z,808.09
2023-03-02T01:04:04.816Z,808.03
2023-03-02T01:05:04.794Z,808.06
2023-03-02T01:06:04.812Z,808.04
2023-03-02T01:07:04.808Z,808.11
2023-03-02T01:08:04.816Z,808.11
2023-03-02T01:09:04.827Z,808.04
2023-03-02T01:10:04.822Z,808.01
2023-03-02T01:11:04.829Z,808.04
2023-03-02T01:12:04.838Z,808.08
2023-03-02T01:13:04.836Z,808.03
2023-03-02T01:14:04.848Z,808.04
2023-03-02T01:15:04.850Z,808.00
2023-03-02T01:16:04.875Z,807.88
2023-03-02T01:17:04.863Z,807.95
2023-03-02T01:18:04.866Z,807.98
2023-03-02T01:19:04.872Z,807.91
2023-03-02T01:20:04.894Z,807.81
2023-03-02T01:21:04.879Z,807.89
2023-03-02T01:22:04.890Z,807.92
2023-03-02T01:23:04.889Z,807.93
2023-03-02T01:24:04.898Z,807.96
2023-03-02T01:25:04.899Z,807.99
2023-03-02T01:26:04.906Z,807.96
2023-03-02T01:27:04.907Z,807.87
2023-03-02T01:28:04.917Z,807.86
2023-03-02T01:29:04.914Z,807.84
2023-03-02T01:30:04.925Z,807.86
2023-03-02T01:31:05.016Z,807.87
2023-03-02T01:32:04.963Z,807.89
2023-03-02T01:33:04.962Z,807.85
2023-03-02T01:34:04.948Z,807.86
2023-03-02T01:35:04.942Z,807.87
2023-03-02T01:36:04.979Z,807.83
2023-03-02T01:37:04.951Z,807.82
2023-03-02T01:38:04.993Z,807.87
2023-03-02T01:39:04.961Z,807.92
2023-03-02T01:40:04.985Z,807.81
2023-03-02T01:41:04.973Z,807.81
2023-03-02T01:42:04.978Z,807.80
2023-03-02T01:43:04.978Z,807.81
2023-03-02T01:44:04.980Z,807.85
2023-03-02T01:45:04.992Z,807.80
2023-03-02T01:46:05.083Z,807.74
2023-03-02T01:47:04.998Z,807.78
2023-03-02T01:48:05.002Z,807.73
2023-03-02T01:49:05.003Z,807.72
2023-03-02T01:50:05.018Z,807.75
2023-03-02T01:51:05.010Z,807.73
2023-03-02T01:52:05.032Z,807.73
2023-03-02T01:53:05.657Z,807.68
2023-03-02T01:54:05.040Z,807.66
2023-03-02T01:55:05.070Z,807.70
2023-03-02T01:56:05.035Z,807.77
2023-03-02T01:57:05.038Z,807.78
2023-03-02T01:58:05.037Z,807.79
2023-03-02T01:59:05.040Z,807.76
2023-03-02T02:00:05.059Z,807.75
2023-03-02T02:01:05.075Z,807.75
2023-03-02T02:02:05.061Z,807.75
2023-03-02T02:03:05.058Z,807.71
2023-03-02T02:04:05.107Z,807.74
2023-03-02T02:05:05.066Z,807.74
2023-03-02T02:06:05.073Z,807.82
2023-03-02T02:07:05.077Z,807.86
2023-03-02T02:08:05.117Z,807.95
2023-03-02T02:09:05.084Z,807.96
2023-03-02T02:10:05.089Z,807.91
2023-03-02T02:11:05.091Z,807.88
2023-03-02T02:12:05.099Z,807.92
2023-03-02T02:13:05.096Z,807.91
2023-03-02T02:14:05.113Z,807.92
2023-03-02T02:15:05.110Z,807.93
2023-03-02T02:16:05.144Z,807.97
2023-03-02T02:17:05.118Z,808.00
2023-03-02T02:18:05.120Z,808.01
2023-03-02T02:19:05.120Z,808.01
2023-03-02T02:20:05.130Z,808.03
2023-03-02T02:21:05.131Z,807.97
2023-03-02T02:22:05.139Z,808.02
2023-03-02T02:23:05.138Z,808.06
2023-03-02T02:24:05.165Z,808.06
2023-03-02T02:25:05.148Z,808.08
2023-03-02T02:26:05.155Z,808.05
2023-03-02T02:27:05.155Z,808.06
2023-03-02T02:28:05.162Z,808.06
2023-03-02T02:29:05.162Z,808.06
2023-03-02T02:30:05.176Z,808.03
2023-03-02T02:31:05.170Z,808.05
2023-03-02T02:32:05.359Z,808.09
2023-03-02T02:33:05.177Z,808.11
2023-03-02T02:34:05.187Z,808.14
2023-03-02T02:35:05.194Z,808.14
2023-03-02T02:36:05.231Z,808.15
2023-03-02T02:37:05.198Z,808.21
2023-03-02T02:38:05.214Z,808.20
2023-03-02T02:39:05.204Z,808.16
2023-03-02T02:40:05.228Z,808.21
2023-03-02T02:41:05.210Z,808.22
2023-03-02T02:42:05.226Z,808.26
2023-03-02T02:43:05.229Z,808.23
2023-03-02T02:44:05.227Z,808.26
2023-03-02T02:45:05.241Z,808.28
2023-03-02T02:46:05.353Z,808.28
2023-03-02T02:47:05.237Z,808.24
2023-03-02T02:48:05.243Z,808.28
2023-03-02T02:49:05.241Z,808.25
2023-03-02T02:50:05.260Z,808.19
2023-03-02T02:51:05.252Z,808.20
2023-03-02T02:52:05.261Z,808.22
2023-03-02T02:53:05.274Z,808.24
2023-03-02T02:54:05.270Z,808.26
2023-03-02T02:55:05.270Z,808.23
2023-03-02T02:56:05.311Z,808.23
2023-03-02T02:57:05.298Z,808.21
2023-03-02T02:58:05.282Z,808.24
2023-03-02T02:59:05.289Z,808.24
2023-03-02T03:00:05.293Z,808.18
2023-03-02T03:01:05.349Z,808.20
2023-03-02T03:02:05.317Z,808.20
2023-03-02T03:03:05.301Z,808.19
2023-03-02T03:04:05.394Z,808.21
2023-03-02T03:05:05.306Z,808.16
2023-03-02T03:06:05.317Z,808.18
2023-03-02T03:07:05.317Z,808.18
2023-03-02T03:08:05.324Z,808.18
2023-03-02T03:09:05.330Z,808.21
2023-03-02T03:10:05.333Z,808.17
2023-03-02T03:11:05.332Z,808.19
2023-03-02T03:12:05.363Z,808.18
2023-03-02T03:13:05.344Z,808.14
2023-03-02T03:14:05.355Z,808.18
2023-03-02T03:15:05.352Z,808.20
2023-03-02T03:16:05.357Z,808.17
2023-03-02T03:17:05.421Z,808.18
2023-03-02T03:18:05.368Z,808.11
2023-03-02T03:19:05.367Z,808.17
2023-03-02T03:20:05.371Z,808.20
2023-03-02T03:21:05.377Z,808.15
2023-03-02T03:22:05.381Z,808.18
2023-03-02T03:23:05.382Z,808.19
2023-03-02T03:24:05.388Z,808.17
2023-03-02T03:25:05.389Z,808.18
2023-03-02T03:26:05.399Z,808.19
2023-03-02T03:27:05.540Z,808.22
2023-03-02T03:28:05.437Z,808.19
2023-03-02T03:29:05.402Z,808.20
2023-03-02T03:30:05.411Z,808.21
2023-03-02T03:31:05.461Z,808.22
2023-03-02T03:32:05.503Z,808.18
2023-03-02T03:33:05.421Z,808.20
2023-03-02T03:34:05.424Z,808.29
2023-03-02T03:35:05.425Z,808.25
2023-03-02T03:36:05.458Z,808.20
2023-03-02T03:37:05.438Z,808.21
2023-03-02T03:38:05.441Z,808.22
2023-03-02T03:39:05.448Z,808.27
2023-03-02T03:40:05.456Z,808.27
2023-03-02T03:41:05.458Z,808.25
2023-03-02T03:42:05.462Z,808.23
2023-03-02T03:43:05.458Z,808.23
2023-03-02T03:44:05.489Z,808.22
2023-03-02T03:45:05.467Z,808.19
2023-03-02T03:46:05.527Z,808.25
2023-03-02T03:47:05.476Z,808.25
2023-03-02T03:48:05.483Z,808.30
2023-03-02T03:49:05.498Z,808.29
2023-03-02T03:50:05.491Z,808.32
2023-03-02T03:51:05.492Z,808.33
2023-03-02T03:52:05.498Z,808.36
2023-03-02T03:53:05.498Z,808.37
2023-03-02T03:54:05.511Z,808.40
2023-03-02T03:55:05.506Z,808.37
2023-03-02T03:56:05.523Z,808.36
2023-03-02T03:57:05.513Z,808.35
2023-03-02T03:58:05.519Z,808.36
2023-03-02T03:59:05.521Z,808.37
2023-03-02T04:00:05.550Z,808.41
2023-03-02T04:01:05.707Z,808.41
2023-03-02T04:02:05.542Z,808.43
2023-03-02T04:03:05.539Z,808.46
2023-03-02T04:04:05.544Z,808.48
2023-03-02T04:05:05.551Z,808.47
2023-03-02T04:06:05.557Z,808.50
2023-03-02T04:07:05.555Z,808.49
2023-03-02T04:08:05.562Z,808.45
2023-03-02T04:09:05.572Z,808.39
2023-03-02T04:10:05.569Z,808.42
2023-03-02T04:11:05.574Z,808.32
2023-03-02T04:12:05.589Z,808.37
2023-03-02T04:13:05.581Z,808.41
2023-03-02T04:14:05.670Z,808.41
2023-03-02T04:15:05.594Z,808.37
2023-03-02T04:16:05.638Z,808.38
2023-03-02T04:17:05.621Z,808.35
2023-03-02T04:18:05.631Z,808.45
2023-03-02T04:19:05.601Z,808.42
2023-03-02T04:20:05.614Z,808.39
2023-03-02T04:21:05.617Z,808.46
2023-03-02T04:22:05.623Z,808.47
2023-03-02T04:23:05.628Z,808.47
2023-03-02T04:24:05.633Z,808.49
2023-03-02T04:25:05.629Z,808.46
2023-03-02T04:26:05.643Z,808.47
2023-03-02T04:27:05.646Z,808.52
2023-03-02T04:28:05.644Z,808.50
2023-03-02T04:29:05.645Z,808.54
2023-03-02T04:30:05.652Z,808.51
2023-03-02T04:31:05.678Z,808.57
2023-03-02T04:32:05.799Z,808.54
2023-03-02T04:33:05.666Z,808.56
2023-03-02T04:34:05.673Z,808.55
2023-03-02T04:35:05.695Z,808.56
2023-03-02T04:36:05.704Z,808.55
2023-03-02T04:37:05.692Z,808.62
2023-03-02T04:38:05.692Z,808.61
2023-03-02T04:39:05.699Z,808.61
2023-03-02T04:40:05.700Z,808.61
2023-03-02T04:41:05.731Z,808.62
2023-03-02T04:42:05.711Z,808.66
2023-03-02T04:43:05.716Z,808.63
2023-03-02T04:44:05.728Z,808.66
2023-03-02T04:45:05.720Z,808.69
2023-03-02T04:46:05.767Z,808.67
2023-03-02T04:47:05.729Z,808.72
2023-03-02T04:48:05.757Z,808.74
2023-03-02T04:49:05.737Z,808.78
2023-03-02T04:50:05.750Z,808.79
2023-03-02T04:51:05.756Z,808.74
2023-03-02T04:52:05.808Z,808.72
2023-03-02T04:53:05.754Z,808.78
2023-03-02T04:54:05.770Z,808.80
2023-03-02T04:55:05.774Z,808.79
2023-03-02T04:56:05.780Z,808.81
2023-03-02T04:57:05.773Z,808.79
2023-03-02T04:58:05.779Z,808.81
2023-03-02T04:59:05.779Z,808.84
2023-03-02T05:00:05.788Z,808.85
2023-03-02T05:01:05.786Z,808.85
2023-03-02T05:02:05.890Z,808.87
2023-03-02T05:03:05.794Z,808.88
2023-03-02T05:04:05.874Z,808.84
2023-03-02T05:05:05.805Z,808.85
2023-03-02T05:06:05.808Z,808.82
2023-03-02T05:07:05.810Z,808.87
2023-03-02T05:08:05.815Z,808.90
2023-03-02T05:09:05.820Z,808.93
2023-03-02T05:10:05.822Z,808.93
2023-03-02T05:11:05.824Z,808.92
2023-03-02T05:12:05.838Z,808.91
2023-03-02T05:13:05.932Z,808.89
2023-03-02T05:14:05.854Z,808.92
2023-03-02T05:15:05.845Z,808.94
2023-03-02T05:16:05.885Z,808.98
2023-03-02T05:17:05.868Z,809.01
2023-03-02T05:18:05.850Z,809.03
2023-03-02T05:19:05.865Z,809.04
2023-03-02T05:20:05.902Z,809.04
2023-03-02T05:21:05.869Z,809.05
2023-03-02T05:22:05.868Z,809.05
2023-03-02T05:23:05.879Z,809.03
2023-03-02T05:24:05.880Z,809.00
2023-03-02T05:25:05.884Z,809.02
2023-03-02T05:26:05.899Z,809.06
2023-03-02T05:27:05.896Z,809.03
2023-03-02T05:28:05.895Z,808.99
2023-03-02T05:29:05.902Z,809.01
2023-03-02T05:30:05.902Z,809.06
2023-03-02T05:31:05.927Z,809.05
2023-03-02T05:32:05.925Z,809.07
2023-03-02T05:33:05.956Z,809.10
2023-03-02T05:34:05.919Z,809.10
2023-03-02T05:35:05.928Z,809.15
2023-03-02T05:36:05.998Z,809.13
2023-03-02T05:37:05.933Z,809.11
2023-03-02T05:38:05.932Z,809.12
2023-03-02T05:39:05.954Z,809.08
2023-03-02T05:40:05.940Z,809.07
2023-03-02T05:41:05.954Z,809.16
2023-03-02T05:42:05.952Z,809.12
2023-03-02T05:43:05.960Z,809.12
2023-03-02T05:44:06.036Z,809.14
2023-03-02T05:45:05.974Z,809.13
2023-03-02T05:46:05.971Z,809.09
2023-03-02T05:47:05.994Z,809.12
2023-03-02T05:48:05.974Z,809.05
2023-03-02T05:49:05.986Z,809.11
2023-03-02T05:50:05.981Z,809.16
2023-03-02T05:51:05.992Z,809.17
2023-03-02T05:52:06.007Z,809.15
2023-03-02T05:53:06.025Z,809.19
2023-03-02T05:54:05.996Z,809.21
2023-03-02T05:55:06.024Z,809.20
2023-03-02T05:56:06.008Z,809.16
2023-03-02T05:57:06.010Z,809.17
2023-03-02T05:58:06.010Z,809.15
2023-03-02T05:59:06.016Z,809.11
2023-03-02T06:00:06.015Z,809.15
2023-03-02T06:01:06.024Z,809.19
2023-03-02T06:02:06.106Z,809.20
2023-03-02T06:03:06.087Z,809.15
2023-03-02T06:04:06.043Z,809.20
2023-03-02T06:05:06.044Z,809.17
2023-03-02T06:06:06.044Z,809.17
2023-03-02T06:07:06.046Z,809.16
2023-03-02T06:08:06.068Z,809.15
2023-03-02T06:09:06.055Z,809.16
2023-03-02T06:10:06.062Z,809.18
2023-03-02T06:11:06.061Z,809.22
2023-03-02T06:12:06.060Z,809.22
2023-03-02T06:13:06.070Z,809.25
2023-03-02T06:14:06.102Z,809.25
2023-03-02T06:15:06.088Z,809.28
2023-03-02T06:16:06.190Z,809.26
2023-03-02T06:17:06.086Z,809.29
2023-03-02T06:18:06.084Z,809.30
2023-03-02T06:19:06.106Z,809.28
2023-03-02T06:20:06.091Z,809.33
2023-03-02T06:21:06.210Z,809.33
2023-03-02T06:22:06.101Z,809.36
2023-03-02T06:23:06.113Z,809.36
2023-03-02T06:24:06.126Z,809.34
2023-03-02T06:25:06.116Z,809.35
2023-03-02T06:26:06.241Z,809.34
2023-03-02T06:27:06.122Z,809.35
2023-03-02T06:28:06.119Z,809.39
2023-03-02T06:29:06.135Z,809.38
2023-03-02T06:30:06.152Z,809.41
2023-03-02T06:31:06.133Z,809.40
2023-03-02T06:32:06.237Z,809.38
2023-03-02T06:33:06.141Z,809.40
2023-03-02T06:34:06.150Z,809.38
2023-03-02T06:35:06.210Z,809.40
2023-03-02T06:36:06.284Z,809.41
2023-03-02T06:37:06.158Z,809.40
2023-03-02T06:38:06.158Z,809.47
2023-03-02T06:39:06.166Z,809.43
2023-03-02T06:40:06.182Z,809.42
2023-03-02T06:41:06.181Z,809.42
2023-03-02T06:42:06.177Z,809.44
2023-03-02T06:43:06.178Z,809.45
2023-03-02T06:44:06.183Z,809.48
2023-03-02T06:45:06.190Z,809.50
2023-03-02T06:46:06.374Z,809.54
2023-03-02T06:47:06.197Z,809.53
2023-03-02T06:48:06.196Z,809.55
2023-03-02T06:49:06.208Z,809.52
2023-03-02T06:50:06.245Z,809.54
2023-03-02T06:51:06.209Z,809.54
2023-03-02T06:52:06.207Z,809.56
2023-03-02T06:53:06.218Z,809.53
2023-03-02T06:54:06.215Z,809.58
2023-03-02T06:55:06.228Z,809.56
2023-03-02T06:56:06.255Z,809.57
2023-03-02T06:57:06.244Z,809.61
2023-03-02T06:58:06.238Z,809.61
2023-03-02T06:59:06.236Z,809.65
2023-03-02T07:00:06.238Z,809.66
2023-03-02T07:01:06.301Z,809.58
2023-03-02T07:02:06.250Z,809.61
2023-03-02T07:03:06.437Z,809.61
2023-03-02T07:04:06.340Z,809.61
2023-03-02T07:05:06.263Z,809.57
2023-03-02T07:06:06.299Z,809.57
2023-03-02T07:07:06.266Z,809.59
2023-03-02T07:08:06.265Z,809.59
2023-03-02T07:09:06.283Z,809.58
2023-03-02T07:10:06.277Z,809.61
2023-03-02T07:11:06.284Z,809.63
2023-03-02T07:12:06.302Z,809.59
2023-03-02T07:13:08.724Z,809.62
2023-03-02T07:14:06.300Z,809.63
2023-03-02T07:15:06.304Z,809.64
2023-03-02T07:16:06.294Z,809.69
2023-03-02T07:17:06.408Z,809.69
2023-03-02T07:18:06.300Z,809.71
2023-03-02T07:19:06.308Z,809.66
2023-03-02T07:20:06.315Z,809.69
2023-03-02T07:21:06.321Z,809.69
2023-03-02T07:22:06.322Z,809.64
2023-03-02T07:23:06.332Z,809.69
2023-03-02T07:24:06.336Z,809.68
2023-03-02T07:25:06.331Z,809.70
2023-03-02T07:26:06.332Z,809.69
2023-03-02T07:27:06.356Z,809.69
2023-03-02T07:28:06.422Z,809.69
2023-03-02T07:29:06.359Z,809.69
2023-03-02T07:30:06.379Z,809.69
2023-03-02T07:31:06.399Z,809.69
2023-03-02T07:32:06.389Z,809.71
2023-03-02T07:33:06.375Z,809.70
2023-03-02T07:34:06.367Z,809.72
2023-03-02T07:35:06.398Z,809.74
2023-03-02T07:36:06.374Z,809.78
2023-03-02T07:37:06.391Z,809.76
2023-03-02T07:38:06.384Z,809.75
2023-03-02T07:39:06.387Z,809.76
2023-03-02T07:40:06.408Z,809.74
2023-03-02T07:41:06.398Z,809.73
2023-03-02T07:42:06.397Z,809.74
2023-03-02T07:43:06.412Z,809.76
2023-03-02T07:44:06.435Z,809.77
2023-03-02T07:45:06.411Z,809.79
2023-03-02T07:46:06.532Z,809.77
2023-03-02T07:47:06.421Z,809.79
2023-03-02T07:48:06.421Z,809.82
2023-03-02T07:49:06.428Z,809.86
2023-03-02T07:50:06.427Z,809.83
2023-03-02T07:51:06.436Z,809.86
2023-03-02T07:52:06.441Z,809.89
2023-03-02T07:53:06.448Z,809.87
2023-03-02T07:54:06.455Z,809.89
2023-03-02T07:55:06.452Z,809.86
2023-03-02T07:56:06.447Z,809.88
2023-03-02T07:57:06.458Z,809.87
2023-03-02T07:58:06.459Z,809.89
2023-03-02T07:59:06.467Z,809.88
2023-03-02T08:00:06.486Z,809.90
2023-03-02T08:01:06.481Z,809.94
2023-03-02T08:02:06.494Z,809.94
2023-03-02T08:03:06.524Z,809.94
2023-03-02T08:04:06.514Z,809.90
2023-03-02T08:05:06.500Z,809.94
2023-03-02T08:06:06.511Z,809.90
2023-03-02T08:07:06.501Z,809.91
2023-03-02T08:08:06.502Z,809.91
2023-03-02T08:09:06.511Z,809.90
2023-03-02T08:10:06.518Z,809.91
2023-03-02T08:11:06.519Z,809.88
2023-03-02T08:12:06.529Z,809.91
2023-03-02T08:13:06.530Z,809.92
2023-03-02T08:14:06.533Z,809.89
2023-03-02T08:15:06.546Z,809.90
2023-03-02T08:16:06.736Z,809.88
2023-03-02T08:17:06.547Z,809.90
2023-03-02T08:18:06.551Z,809.91
2023-03-02T08:19:06.560Z,809.85
2023-03-02T08:20:06.564Z,809.84
2023-03-02T08:21:06.566Z,809.84
2023-03-02T08:22:06.575Z,809.87
2023-03-02T08:23:06.589Z,809.87
2023-03-02T08:24:06.579Z,809.91
2023-03-02T08:25:06.585Z,809.85
2023-03-02T08:26:06.591Z,809.85
2023-03-02T08:27:06.594Z,809.88
2023-03-02T08:28:06.599Z,809.87
2023-03-02T08:29:06.609Z,809.87
2023-03-02T08:30:06.607Z,809.83
2023-03-02T08:31:06.634Z,809.84
2023-03-02T08:32:06.846Z,809.83
2023-03-02T08:33:07.314Z,809.91
2023-03-02T08:34:06.672Z,809.89
2023-03-02T08:35:06.634Z,809.91
2023-03-02T08:36:06.699Z,809.92
2023-03-02T08:37:06.646Z,809.87
2023-03-02T08:38:06.646Z,809.90
2023-03-02T08:39:06.654Z,809.86
2023-03-02T08:40:06.655Z,809.88
2023-03-02T08:41:06.714Z,809.86
2023-03-02T08:42:06.671Z,809.85
2023-03-02T08:43:08.148Z,809.84
2023-03-02T08:44:06.676Z,809.84
2023-03-02T08:45:06.691Z,809.84
2023-03-02T08:46:06.785Z,809.84
2023-03-02T08:47:06.697Z,809.84
2023-03-02T08:48:06.726Z,809.92
2023-03-02T08:49:06.711Z,809.88
2023-03-02T08:50:06.707Z,809.84
2023-03-02T08:51:06.712Z,809.86
2023-03-02T08:52:06.712Z,809.91
2023-03-02T08:53:06.726Z,809.91
2023-03-02T08:54:06.726Z,809.85
2023-03-02T08:55:06.749Z,809.86
2023-03-02T08:56:06.743Z,809.89
2023-03-02T08:57:06.742Z,809.84
2023-03-02T08:58:06.743Z,809.87
2023-03-02T08:59:06.756Z,809.85
2023-03-02T09:00:06.759Z,809.83
2023-03-02T09:01:06.814Z,809.85
2023-03-02T09:02:06.763Z,809.87
2023-03-02T09:03:06.772Z,809.86
2023-03-02T09:04:06.903Z,809.83
2023-03-02T09:05:06.781Z,809.85
2023-03-02T09:06:06.784Z,809.82
2023-03-02T09:07:06.793Z,809.83
2023-03-02T09:08:06.793Z,809.85
2023-03-02T09:09:06.813Z,809.84
2023-03-02T09:10:06.816Z,809.89
2023-03-02T09:11:06.818Z,809.87
2023-03-02T09:12:06.814Z,809.85
2023-03-02T09:13:08.468Z,809.88
2023-03-02T09:14:06.822Z,809.83
2023-03-02T09:15:06.838Z,809.81
2023-03-02T09:16:06.869Z,809.84
2023-03-02T09:17:06.848Z,809.88
2023-03-02T09:18:06.855Z,809.89
2023-03-02T09:19:06.861Z,809.82
2023-03-02T09:20:06.876Z,809.83
2023-03-02T09:21:06.868Z,809.85
2023-03-02T09:22:06.870Z,809.86
2023-03-02T09:23:06.882Z,809.85
2023-03-02T09:24:06.888Z,809.88
2023-03-02T09:25:06.890Z,809.89
2023-03-02T09:26:06.893Z,809.88
2023-03-02T09:27:06.903Z,809.88
2023-03-02T09:28:06.904Z,809.92
2023-03-02T09:29:06.913Z,809.95
2023-03-02T09:30:06.934Z,809.93
2023-03-02T09:31:06.922Z,809.94
2023-03-02T09:32:07.079Z,809.88
2023-03-02T09:33:06.998Z,809.88
2023-03-02T09:34:06.954Z,809.86
2023-03-02T09:35:06.942Z,809.93
2023-03-02T09:36:06.980Z,809.95
2023-03-02T09:37:06.957Z,809.92
2023-03-02T09:38:07.058Z,809.96
2023-03-02T09:39:06.965Z,809.95
2023-03-02T09:40:06.976Z,809.98
2023-03-02T09:41:06.982Z,809.96
2023-03-02T09:42:06.989Z,809.97
2023-03-02T09:43:06.999Z,810.04
2023-03-02T09:44:06.999Z,809.97
2023-03-02T09:45:07.007Z,810.02
2023-03-02T09:46:07.042Z,810.05
2023-03-02T09:47:07.014Z,809.99
2023-03-02T09:48:07.025Z,809.98
2023-03-02T09:49:07.033Z,810.00
2023-03-02T09:50:07.035Z,810.04
2023-03-02T09:51:07.038Z,810.07
2023-03-02T09:52:07.072Z,810.03
2023-03-02T09:53:07.054Z,809.97
2023-03-02T09:54:07.089Z,810.00
2023-03-02T09:55:07.063Z,809.99
2023-03-02T09:56:07.069Z,810.04
2023-03-02T09:57:07.073Z,810.01
2023-03-02T09:58:07.082Z,810.04
2023-03-02T09:59:07.088Z,810.03
2023-03-02T10:00:18.532Z,810.06
2023-03-02T10:01:07.106Z,810.12
2023-03-02T10:02:07.109Z,810.04
2023-03-02T10:03:16.714Z,810.04
2023-03-02T10:04:07.239Z,810.08
2023-03-02T10:05:07.126Z,810.11
2023-03-02T10:06:07.148Z,810.12
2023-03-02T10:07:07.137Z,810.14
2023-03-02T10:08:07.168Z,810.18
2023-03-02T10:09:07.156Z,810.15
2023-03-02T10:10:07.165Z,810.17
2023-03-02T10:11:07.179Z,810.17
2023-03-02T10:12:07.171Z,810.21
2023-03-02T10:13:07.176Z,810.19
2023-03-02T10:14:07.184Z,810.22
2023-03-02T10:15:07.203Z,810.23
2023-03-02T10:16:07.311Z,810.25
2023-03-02T10:17:07.206Z,810.20
2023-03-02T10:18:07.217Z,810.22
2023-03-02T10:19:07.226Z,810.21
2023-03-02T10:20:07.226Z,810.27
2023-03-02T10:21:07.230Z,810.25
2023-03-02T10:22:07.238Z,810.29
2023-03-02T10:23:07.243Z,810.25
2023-03-02T10:24:07.278Z,810.23
2023-03-02T10:25:07.256Z,810.30
2023-03-02T10:26:07.268Z,810.26
2023-03-02T10:27:07.279Z,810.27
2023-03-02T10:28:07.280Z,810.20
2023-03-02T10:29:07.284Z,810.17
2023-03-02T10:30:07.323Z,810.27
2023-03-02T10:31:07.360Z,810.28
2023-03-02T10:32:07.339Z,810.28
2023-03-02T10:33:07.313Z,810.26
2023-03-02T10:34:07.326Z,810.25
2023-03-02T10:35:07.328Z,810.29
2023-03-02T10:36:07.335Z,810.25
2023-03-02T10:37:07.339Z,810.30
2023-03-02T10:38:07.359Z,810.28
2023-03-02T10:39:07.354Z,810.26
2023-03-02T10:40:07.413Z,810.26
2023-03-02T10:41:07.366Z,810.28
2023-03-02T10:42:07.383Z,810.26
2023-03-02T10:43:07.380Z,810.27
2023-03-02T10:44:07.390Z,810.22
2023-03-02T10:45:07.395Z,810.25
2023-03-02T10:46:07.523Z,810.26
2023-03-02T10:47:07.419Z,810.25
2023-03-02T10:48:07.434Z,810.32
2023-03-02T10:49:07.448Z,810.28
2023-03-02T10:50:07.437Z,810.25
2023-03-02T10:51:07.453Z,810.26
2023-03-02T10:52:07.453Z,810.23
2023-03-02T10:53:07.460Z,810.27
2023-03-02T10:54:07.476Z,810.28
2023-03-02T10:55:07.472Z,810.28
2023-03-02T10:56:07.503Z,810.24
2023-03-02T10:57:07.486Z,810.24
2023-03-02T10:58:07.515Z,810.23
2023-03-02T10:59:07.512Z,810.24
2023-03-02T11:00:07.653Z,810.24
2023-03-02T11:01:07.520Z,810.24
2023-03-02T11:02:07.533Z,810.26
2023-03-02T11:03:07.535Z,810.25
2023-03-02T11:04:07.656Z,810.26
2023-03-02T11:05:07.639Z,810.27
2023-03-02T11:06:07.565Z,810.27
2023-03-02T11:07:07.589Z,810.29
2023-03-02T11:08:07.579Z,810.26
2023-03-02T11:09:07.591Z,810.26
2023-03-02T11:10:07.662Z,810.24
2023-03-02T11:11:07.605Z,810.25
2023-03-02T11:12:07.722Z,810.25
2023-03-02T11:13:07.619Z,810.24
2023-03-02T11:14:07.628Z,810.29
2023-03-02T11:15:07.636Z,810.24
2023-03-02T11:16:07.700Z,810.31
2023-03-02T11:17:07.652Z,810.28
2023-03-02T11:18:07.662Z,810.40
2023-03-02T11:19:07.670Z,810.26
2023-03-02T11:20:07.677Z,810.32
2023-03-02T11:21:07.687Z,810.32
2023-03-02T11:22:07.701Z,810.29
2023-03-02T11:23:07.704Z,810.33
2023-03-02T11:24:10.026Z,810.30
2023-03-02T11:25:07.714Z,810.30
2023-03-02T11:26:07.730Z,810.23
2023-03-02T11:27:07.734Z,810.27
2023-03-02T11:28:07.767Z,810.28
2023-03-02T11:29:07.753Z,810.25
2023-03-02T11:30:07.778Z,810.32
2023-03-02T11:31:07.837Z,810.29
2023-03-02T11:32:07.824Z,810.27
2023-03-02T11:33:07.844Z,810.26
2023-03-02T11:34:16.735Z,810.22
2023-03-02T11:35:07.808Z,810.22
2023-03-02T11:36:07.889Z,810.24
2023-03-02T11:37:07.827Z,810.21
2023-03-02T11:38:07.842Z,810.26
2023-03-02T11:39:07.845Z,810.19
2023-03-02T11:40:07.861Z,810.27
2023-03-02T11:41:07.890Z,810.26
2023-03-02T11:42:07.912Z,810.23
2023-03-02T11:43:07.877Z,810.23
2023-03-02T11:44:08.003Z,810.25
2023-03-02T11:45:07.891Z,810.19
2023-03-02T11:46:13.856Z,810.23
2023-03-02T11:47:07.990Z,810.23
2023-03-02T11:48:07.944Z,810.20
2023-03-02T11:49:07.937Z,810.20
2023-03-02T11:50:07.961Z,810.16
2023-03-02T11:51:07.977Z,810.18
2023-03-02T11:52:07.958Z,810.21
2023-03-02T11:53:07.964Z,810.18
2023-03-02T11:54:07.981Z,810.18
2023-03-02T11:55:07.984Z,810.17
2023-03-02T11:56:07.994Z,810.23
2023-03-02T11:57:08.006Z,810.23
2023-03-02T11:58:08.012Z,810.19
2023-03-02T11:59:08.019Z,810.20
2023-03-02T12:00:08.053Z,810.16
2023-03-02T12:01:08.039Z,810.15
2023-03-02T12:02:08.145Z,810.19
2023-03-02T12:03:08.055Z,810.13
2023-03-02T12:04:08.079Z,810.16
2023-03-02T12:05:08.115Z,810.15
2023-03-02T12:06:08.101Z,810.10
2023-03-02T12:07:08.100Z,810.15
2023-03-02T12:08:08.104Z,810.17
2023-03-02T12:09:08.188Z,810.22
2023-03-02T12:10:08.159Z,810.17
2023-03-02T12:11:08.133Z,810.16
2023-03-02T12:12:08.146Z,810.11
2023-03-02T12:13:08.152Z,810.14
2023-03-02T12:14:08.167Z,810.10
2023-03-02T12:15:08.175Z,810.06
2023-03-02T12:16:08.377Z,810.10
2023-03-02T12:17:08.199Z,810.10
2023-03-02T12:18:08.410Z,810.12
2023-03-02T12:19:08.211Z,810.09
2023-03-02T12:20:08.231Z,810.11
2023-03-02T12:21:08.235Z,810.17
2023-03-02T12:22:08.258Z,810.15
2023-03-02T12:23:08.250Z,810.15
2023-03-02T12:24:08.260Z,810.14
2023-03-02T12:25:08.269Z,810.13
2023-03-02T12:26:08.298Z,810.15
2023-03-02T12:27:08.325Z,810.13
2023-03-02T12:28:08.303Z,810.11